sensor_id;sensor_type;location;lat;lon;timestamp;pressure;altitude;pressure_sealevel;temperature;humidity
76052;BME280;64751;48.708;9.710;2023-04-03T00:01:58;98303.63;;;4.20;70.38
76052;BME280;64751;48.708;9.710;2023-04-03T00:04:26;98301.41;;;4.23;70.85
76052;BME280;64751;48.708;9.710;2023-04-03T00:06:53;98293.56;;;4.23;69.76
76052;BME280;64751;48.708;9.710;2023-04-03T00:09:21;98294.13;;;4.25;69.86
76052;BME280;64751;48.708;9.710;2023-04-03T00:11:49;98296.75;;;4.25;68.98
76052;BME280;64751;48.708;9.710;2023-04-03T00:14:16;98296.53;;;4.27;69.79
76052;BME280;64751;48.708;9.710;2023-04-03T00:16:44;98295.28;;;4.29;68.89
76052;BME280;64751;48.708;9.710;2023-04-03T00:19:13;98293.69;;;4.28;68.60
76052;BME280;64751;48.708;9.710;2023-04-03T00:21:40;98298.31;;;4.26;69.42
76052;BME280;64751;48.708;9.710;2023-04-03T00:24:08;98295.72;;;4.26;69.49
76052;BME280;64751;48.708;9.710;2023-04-03T00:26:35;98299.13;;;4.27;69.23
76052;BME280;64751;48.708;9.710;2023-04-03T00:29:03;98303.13;;;4.29;68.52
76052;BME280;64751;48.708;9.710;2023-04-03T00:31:30;98301.09;;;4.31;68.89
76052;BME280;64751;48.708;9.710;2023-04-03T00:33:58;98307.13;;;4.32;70.10
76052;BME280;64751;48.708;9.710;2023-04-03T00:36:27;98304.28;;;4.33;70.61
76052;BME280;64751;48.708;9.710;2023-04-03T00:38:55;98297.25;;;4.34;69.60
76052;BME280;64751;48.708;9.710;2023-04-03T00:41:22;98298.63;;;4.36;70.10
76052;BME280;64751;48.708;9.710;2023-04-03T00:43:50;98297.81;;;4.36;69.24
76052;BME280;64751;48.708;9.710;2023-04-03T00:46:18;98298.25;;;4.33;68.88
76052;BME280;64751;48.708;9.710;2023-04-03T00:48:47;98301.53;;;4.28;69.36
76052;BME280;64751;48.708;9.710;2023-04-03T00:51:18;98301.16;;;4.25;69.20
76052;BME280;64751;48.708;9.710;2023-04-03T00:53:51;98300.50;;;4.29;69.08
76052;BME280;64751;48.708;9.710;2023-04-03T00:56:23;98291.06;;;4.28;68.38
76052;BME280;64751;48.708;9.710;2023-04-03T00:58:57;98290.94;;;4.23;67.33
76052;BME280;64751;48.708;9.710;2023-04-03T01:01:28;98291.50;;;4.25;68.08
76052;BME280;64751;48.708;9.710;2023-04-03T01:03:57;98292.66;;;4.29;68.72
76052;BME280;64751;48.708;9.710;2023-04-03T01:06:27;98292.66;;;4.29;68.81
76052;BME280;64751;48.708;9.710;2023-04-03T01:09:04;98290.47;;;4.26;68.32
76052;BME280;64751;48.708;9.710;2023-04-03T01:11:32;98293.56;;;4.23;67.71
76052;BME280;64751;48.708;9.710;2023-04-03T01:14:01;98300.09;;;4.32;69.61
76052;BME280;64751;48.708;9.710;2023-04-03T01:16:29;98302.47;;;4.34;68.67
76052;BME280;64751;48.708;9.710;2023-04-03T01:18:59;98312.28;;;4.38;68.75
76052;BME280;64751;48.708;9.710;2023-04-03T01:21:46;98309.66;;;4.38;67.17
76052;BME280;64751;48.708;9.710;2023-04-03T01:24:27;98311.47;;;4.38;68.01
76052;BME280;64751;48.708;9.710;2023-04-03T01:26:59;98311.25;;;4.39;67.88
76052;BME280;64751;48.708;9.710;2023-04-03T01:29:28;98315.72;;;4.39;67.76
76052;BME280;64751;48.708;9.710;2023-04-03T01:31:59;98309.44;;;4.40;68.95
76052;BME280;64751;48.708;9.710;2023-04-03T01:34:28;98296.81;;;4.37;68.73
76052;BME280;64751;48.708;9.710;2023-04-03T01:36:55;98313.66;;;4.41;67.88
76052;BME280;64751;48.708;9.710;2023-04-03T01:39:23;98315.72;;;4.39;68.16
76052;BME280;64751;48.708;9.710;2023-04-03T01:41:52;98303.94;;;4.30;68.10
76052;BME280;64751;48.708;9.710;2023-04-03T01:44:29;98307.72;;;4.34;68.72
76052;BME280;64751;48.708;9.710;2023-04-03T01:46:58;98314.53;;;4.35;68.85
76052;BME280;64751;48.708;9.710;2023-04-03T01:49:27;98307.56;;;4.29;67.71
76052;BME280;64751;48.708;9.710;2023-04-03T01:51:55;98303.56;;;4.26;67.58
76052;BME280;64751;48.708;9.710;2023-04-03T01:54:23;98306.41;;;4.25;68.05
76052;BME280;64751;48.708;9.710;2023-04-03T01:56:50;98299.78;;;4.22;67.71
76052;BME280;64751;48.708;9.710;2023-04-03T01:59:19;98302.88;;;4.13;65.67
76052;BME280;64751;48.708;9.710;2023-04-03T02:01:47;98316.19;;;4.11;66.03
76052;BME280;64751;48.708;9.710;2023-04-03T02:04:15;98306.16;;;4.08;65.08
76052;BME280;64751;48.708;9.710;2023-04-03T02:06:43;98317.41;;;4.09;65.85
76052;BME280;64751;48.708;9.710;2023-04-03T02:09:10;98310.94;;;4.11;65.45
76052;BME280;64751;48.708;9.710;2023-04-03T02:11:38;98317.78;;;4.12;68.06
76052;BME280;64751;48.708;9.710;2023-04-03T02:14:06;98312.56;;;4.12;67.24
76052;BME280;64751;48.708;9.710;2023-04-03T02:16:34;98322.78;;;4.14;67.07
76052;BME280;64751;48.708;9.710;2023-04-03T02:19:01;98322.28;;;4.05;66.60
76052;BME280;64751;48.708;9.710;2023-04-03T02:21:31;98324.72;;;4.00;67.09
76052;BME280;64751;48.708;9.710;2023-04-03T02:23:59;98324.16;;;3.98;67.43
76052;BME280;64751;48.708;9.710;2023-04-03T02:26:26;98319.78;;;3.92;68.71
76052;BME280;64751;48.708;9.710;2023-04-03T02:28:54;98324.19;;;3.92;68.53
76052;BME280;64751;48.708;9.710;2023-04-03T02:31:21;98325.44;;;3.89;68.87
76052;BME280;64751;48.708;9.710;2023-04-03T02:33:50;98323.16;;;3.93;69.63
76052;BME280;64751;48.708;9.710;2023-04-03T02:36:18;98328.34;;;3.99;68.75
76052;BME280;64751;48.708;9.710;2023-04-03T02:38:53;98333.72;;;4.04;70.12
76052;BME280;64751;48.708;9.710;2023-04-03T02:41:21;98332.28;;;4.08;68.74
76052;BME280;64751;48.708;9.710;2023-04-03T02:43:50;98329.25;;;4.11;69.52
76052;BME280;64751;48.708;9.710;2023-04-03T02:46:18;98328.25;;;4.12;69.14
76052;BME280;64751;48.708;9.710;2023-04-03T02:48:45;98330.41;;;4.15;69.21
76052;BME280;64751;48.708;9.710;2023-04-03T02:51:13;98332.03;;;4.16;70.29
76052;BME280;64751;48.708;9.710;2023-04-03T02:53:40;98323.72;;;4.19;69.39
76052;BME280;64751;48.708;9.710;2023-04-03T02:56:15;98336.59;;;4.21;68.86
76052;BME280;64751;48.708;9.710;2023-04-03T02:58:43;98333.75;;;4.22;70.23
76052;BME280;64751;48.708;9.710;2023-04-03T03:01:11;98324.47;;;4.26;69.66
76052;BME280;64751;48.708;9.710;2023-04-03T03:03:39;98314.81;;;4.27;68.39
76052;BME280;64751;48.708;9.710;2023-04-03T03:06:08;98325.63;;;4.30;69.96
76052;BME280;64751;48.708;9.710;2023-04-03T03:08:36;98332.69;;;4.30;69.47
76052;BME280;64751;48.708;9.710;2023-04-03T03:11:04;98322.44;;;4.28;68.46
76052;BME280;64751;48.708;9.710;2023-04-03T03:13:34;98330.16;;;4.23;68.04
76052;BME280;64751;48.708;9.710;2023-04-03T03:16:02;98321.34;;;4.18;67.65
76052;BME280;64751;48.708;9.710;2023-04-03T03:18:30;98321.34;;;4.18;67.72
76052;BME280;64751;48.708;9.710;2023-04-03T03:20:59;98329.75;;;4.20;67.54
76052;BME280;64751;48.708;9.710;2023-04-03T03:23:29;98329.75;;;4.20;66.95
76052;BME280;64751;48.708;9.710;2023-04-03T03:25:59;98330.22;;;4.17;66.21
76052;BME280;64751;48.708;9.710;2023-04-03T03:28:27;98331.44;;;4.14;66.15
76052;BME280;64751;48.708;9.710;2023-04-03T03:30:56;98330.63;;;4.14;67.46
76052;BME280;64751;48.708;9.710;2023-04-03T03:33:24;98332.84;;;4.10;66.53
76052;BME280;64751;48.708;9.710;2023-04-03T03:35:52;98330.06;;;4.12;66.83
76052;BME280;64751;48.708;9.710;2023-04-03T03:38:21;98303.59;;;4.02;67.38
76052;BME280;64751;48.708;9.710;2023-04-03T03:40:49;98320.59;;;4.11;66.19
76052;BME280;64751;48.708;9.710;2023-04-03T03:43:19;98322.63;;;4.09;67.47
76052;BME280;64751;48.708;9.710;2023-04-03T03:45:50;98317.41;;;4.09;67.54
76052;BME280;64751;48.708;9.710;2023-04-03T03:48:20;98319.00;;;4.10;67.80
76052;BME280;64751;48.708;9.710;2023-04-03T03:50:48;98317.97;;;4.11;67.21
76052;BME280;64751;48.708;9.710;2023-04-03T03:53:18;98319.38;;;4.13;67.51
76052;BME280;64751;48.708;9.710;2023-04-03T03:55:46;98319.78;;;4.10;66.18
76052;BME280;64751;48.708;9.710;2023-04-03T03:58:21;98324.03;;;4.11;66.96
76052;BME280;64751;48.708;9.710;2023-04-03T04:00:50;98319.38;;;4.13;66.61
76052;BME280;64751;48.708;9.710;2023-04-03T04:03:17;98318.78;;;4.11;67.48
76052;BME280;64751;48.708;9.710;2023-04-03T04:05:48;98323.03;;;4.12;67.61
76052;BME280;64751;48.708;9.710;2023-04-03T04:08:16;98322.41;;;4.10;68.12
76052;BME280;64751;48.708;9.710;2023-04-03T04:10:46;98315.44;;;4.04;69.30
76052;BME280;64751;48.708;9.710;2023-04-03T04:13:15;98323.03;;;4.12;67.86
76052;BME280;64751;48.708;9.710;2023-04-03T04:15:44;98320.41;;;4.12;67.43
76052;BME280;64751;48.708;9.710;2023-04-03T04:18:12;98317.78;;;4.12;67.69
76052;BME280;64751;48.708;9.710;2023-04-03T04:20:44;98317.19;;;4.10;68.69
76052;BME280;64751;48.708;9.710;2023-04-03T04:23:13;98315.00;;;4.07;68.71
76052;BME280;64751;48.708;9.710;2023-04-03T04:25:44;98318.78;;;4.11;69.03
76052;BME280;64751;48.708;9.710;2023-04-03T04:28:12;98314.94;;;4.14;68.00
76052;BME280;64751;48.708;9.710;2023-04-03T04:30:39;98315.59;;;4.09;66.77
76052;BME280;64751;48.708;9.710;2023-04-03T04:33:07;98313.97;;;4.08;67.84
76052;BME280;64751;48.708;9.710;2023-04-03T04:35:36;98320.25;;;4.07;68.52
76052;BME280;64751;48.708;9.710;2023-04-03T04:38:04;98325.03;;;4.10;67.95
76052;BME280;64751;48.708;9.710;2023-04-03T04:40:33;98320.81;;;4.09;68.64
76052;BME280;64751;48.708;9.710;2023-04-03T04:43:00;98315.00;;;4.07;66.28
76052;BME280;64751;48.708;9.710;2023-04-03T04:45:28;98315.00;;;4.07;66.63
76052;BME280;64751;48.708;9.710;2023-04-03T04:47:56;98317.03;;;4.05;67.45
76052;BME280;64751;48.708;9.710;2023-04-03T04:50:25;98318.47;;;4.01;67.42
76052;BME280;64751;48.708;9.710;2023-04-03T04:52:54;98320.72;;;3.98;68.61
76052;BME280;64751;48.708;9.710;2023-04-03T04:55:21;98315.13;;;3.94;66.75
76052;BME280;64751;48.708;9.710;2023-04-03T04:57:51;98321.16;;;3.95;67.28
76052;BME280;64751;48.708;9.710;2023-04-03T05:00:21;98322.00;;;3.89;66.41
76052;BME280;64751;48.708;9.710;2023-04-03T05:02:49;98322.88;;;3.83;67.37
76052;BME280;64751;48.708;9.710;2023-04-03T05:05:18;98320.91;;;3.78;67.43
76052;BME280;64751;48.708;9.710;2023-04-03T05:07:46;98330.00;;;3.69;65.92
76052;BME280;64751;48.708;9.710;2023-04-03T05:10:14;98332.09;;;3.60;66.86
76052;BME280;64751;48.708;9.710;2023-04-03T05:12:42;98338.31;;;3.59;65.61
76052;BME280;64751;48.708;9.710;2023-04-03T05:15:11;98335.91;;;3.58;66.26
76052;BME280;64751;48.708;9.710;2023-04-03T05:17:38;98337.50;;;3.59;66.62
76052;BME280;64751;48.708;9.710;2023-04-03T05:20:11;98337.13;;;3.55;65.96
76052;BME280;64751;48.708;9.710;2023-04-03T05:22:39;98334.53;;;3.55;66.98
76052;BME280;64751;48.708;9.710;2023-04-03T05:25:09;98339.81;;;3.49;64.58
76052;BME280;64751;48.708;9.710;2023-04-03T05:27:38;98339.22;;;3.47;64.82
76052;BME280;64751;48.708;9.710;2023-04-03T05:30:06;98351.72;;;3.38;65.90
76052;BME280;64751;48.708;9.710;2023-04-03T05:32:37;98355.06;;;3.45;65.54
76052;BME280;64751;48.708;9.710;2023-04-03T05:35:19;98356.50;;;3.41;64.39
76052;BME280;64751;48.708;9.710;2023-04-03T05:37:48;98350.25;;;3.49;66.25
76052;BME280;64751;48.708;9.710;2023-04-03T05:40:17;98353.25;;;3.46;65.92
76052;BME280;64751;48.708;9.710;2023-04-03T05:42:48;98345.78;;;3.56;65.31
76052;BME280;64751;48.708;9.710;2023-04-03T05:45:17;98356.13;;;3.69;65.18
76052;BME280;64751;48.708;9.710;2023-04-03T05:47:46;98342.09;;;3.63;64.23
76052;BME280;64751;48.708;9.710;2023-04-03T05:50:14;98349.28;;;3.68;63.68
76052;BME280;64751;48.708;9.710;2023-04-03T05:52:44;98350.84;;;3.76;64.41
76052;BME280;64751;48.708;9.710;2023-04-03T05:55:14;98331.78;;;3.44;64.07
76052;BME280;64751;48.708;9.710;2023-04-03T05:57:41;98356.88;;;3.76;64.19
76052;BME280;64751;48.708;9.710;2023-04-03T06:00:12;98361.94;;;3.71;64.29
76052;BME280;64751;48.708;9.710;2023-04-03T06:02:43;98350.72;;;3.64;64.80
76052;BME280;64751;48.708;9.710;2023-04-03T06:05:19;98362.88;;;3.77;65.24
76052;BME280;64751;48.708;9.710;2023-04-03T06:07:47;98354.75;;;3.66;63.73
76052;BME280;64751;48.708;9.710;2023-04-03T06:10:15;98363.75;;;3.71;65.42
76052;BME280;64751;48.708;9.710;2023-04-03T06:12:44;98356.31;;;3.74;64.03
76052;BME280;64751;48.708;9.710;2023-04-03T06:15:13;98361.53;;;3.74;64.40
76052;BME280;64751;48.708;9.710;2023-04-03T06:17:41;98372.88;;;3.86;65.13
76052;BME280;64751;48.708;9.710;2023-04-03T06:20:10;98374.03;;;3.90;64.79
76052;BME280;64751;48.708;9.710;2023-04-03T06:22:39;98375.06;;;3.89;65.03
76052;BME280;64751;48.708;9.710;2023-04-03T06:25:08;98372.75;;;3.99;65.15
76052;BME280;64751;48.708;9.710;2023-04-03T06:27:37;98372.94;;;4.04;64.42
76052;BME280;64751;48.708;9.710;2023-04-03T06:30:05;98371.00;;;3.93;64.24
76052;BME280;64751;48.708;9.710;2023-04-03T06:32:33;98376.41;;;3.98;65.16
76052;BME280;64751;48.708;9.710;2023-04-03T06:35:01;98375.94;;;4.08;64.71
76052;BME280;64751;48.708;9.710;2023-04-03T06:37:29;98376.00;;;3.95;63.97
76052;BME280;64751;48.708;9.710;2023-04-03T06:39:58;98382.38;;;4.05;63.95
76052;BME280;64751;48.708;9.710;2023-04-03T06:42:26;98381.84;;;4.21;64.20
76052;BME280;64751;48.708;9.710;2023-04-03T06:45:00;98380.00;;;4.22;63.84
76052;BME280;64751;48.708;9.710;2023-04-03T06:47:28;98380.00;;;4.22;63.33
76052;BME280;64751;48.708;9.710;2023-04-03T06:49:55;98382.84;;;4.20;63.81
76052;BME280;64751;48.708;9.710;2023-04-03T06:52:23;98388.97;;;4.32;64.96
76052;BME280;64751;48.708;9.710;2023-04-03T06:54:51;98387.06;;;4.21;63.81
76052;BME280;64751;48.708;9.710;2023-04-03T06:57:24;98390.47;;;4.22;63.61
76052;BME280;64751;48.708;9.710;2023-04-03T06:59:52;98392.97;;;4.10;64.65
76052;BME280;64751;48.708;9.710;2023-04-03T07:02:20;98391.59;;;4.32;64.36
76052;BME280;64751;48.708;9.710;2023-04-03T07:04:48;98378.22;;;4.40;63.36
76052;BME280;64751;48.708;9.710;2023-04-03T07:07:15;98396.66;;;4.70;63.77
76052;BME280;64751;48.708;9.710;2023-04-03T07:09:43;98396.00;;;4.75;63.57
76052;BME280;64751;48.708;9.710;2023-04-03T07:12:12;98387.19;;;7.27;56.56
76052;BME280;64751;48.708;9.710;2023-04-03T07:14:42;98389.88;;;7.88;54.69
76052;BME280;64751;48.708;9.710;2023-04-03T07:17:10;98392.66;;;8.48;51.79
76052;BME280;64751;48.708;9.710;2023-04-03T07:19:37;98385.59;;;8.32;52.94
76052;BME280;64751;48.708;9.710;2023-04-03T07:22:05;98393.94;;;8.13;53.74
76052;BME280;64751;48.708;9.710;2023-04-03T07:24:32;98387.75;;;8.35;51.47
76052;BME280;64751;48.708;9.710;2023-04-03T07:27:00;98388.06;;;7.61;53.94
76052;BME280;64751;48.708;9.710;2023-04-03T07:29:28;98398.09;;;7.36;54.68
76052;BME280;64751;48.708;9.710;2023-04-03T07:31:57;98396.56;;;6.60;55.13
76052;BME280;64751;48.708;9.710;2023-04-03T07:34:25;98388.91;;;6.01;57.47
76052;BME280;64751;48.708;9.710;2023-04-03T07:36:52;98399.94;;;5.91;59.07
76052;BME280;64751;48.708;9.710;2023-04-03T07:39:20;98403.09;;;8.10;55.81
76052;BME280;64751;48.708;9.710;2023-04-03T07:41:48;98405.63;;;10.90;46.96
76052;BME280;64751;48.708;9.710;2023-04-03T07:44:15;98410.19;;;12.77;41.53
76052;BME280;64751;48.708;9.710;2023-04-03T07:46:43;98402.16;;;13.07;40.74
76052;BME280;64751;48.708;9.710;2023-04-03T07:49:12;98406.75;;;14.28;40.24
76052;BME280;64751;48.708;9.710;2023-04-03T07:51:39;98412.84;;;12.77;39.61
76052;BME280;64751;48.708;9.710;2023-04-03T07:54:07;98409.84;;;11.53;43.39
76052;BME280;64751;48.708;9.710;2023-04-03T07:56:35;98415.44;;;12.97;41.26
76052;BME280;64751;48.708;9.710;2023-04-03T07:59:03;98416.03;;;13.53;38.72
76052;BME280;64751;48.708;9.710;2023-04-03T08:01:30;98412.91;;;12.17;40.83
76052;BME280;64751;48.708;9.710;2023-04-03T08:03:59;98412.63;;;10.64;45.44
76052;BME280;64751;48.708;9.710;2023-04-03T08:06:30;98420.44;;;9.91;46.68
76052;BME280;64751;48.708;9.710;2023-04-03T08:08:59;98416.13;;;9.53;48.14
76052;BME280;64751;48.708;9.710;2023-04-03T08:11:26;98426.50;;;9.38;49.45
76052;BME280;64751;48.708;9.710;2023-04-03T08:13:54;98421.91;;;9.07;51.38
76052;BME280;64751;48.708;9.710;2023-04-03T08:16:23;98430.03;;;8.29;50.74
76052;BME280;64751;48.708;9.710;2023-04-03T08:18:51;98426.66;;;7.44;53.48
76052;BME280;64751;48.708;9.710;2023-04-03T08:21:19;98430.81;;;7.28;54.55
76052;BME280;64751;48.708;9.710;2023-04-03T08:23:49;98430.91;;;7.33;55.01
76052;BME280;64751;48.708;9.710;2023-04-03T08:26:19;98434.47;;;7.15;54.79
76052;BME280;64751;48.708;9.710;2023-04-03T08:28:47;98436.91;;;7.17;55.33
76052;BME280;64751;48.708;9.710;2023-04-03T08:31:18;98430.97;;;7.10;55.03
76052;BME280;64751;48.708;9.710;2023-04-03T08:33:46;98436.00;;;6.88;57.40
76052;BME280;64751;48.708;9.710;2023-04-03T08:36:19;98436.56;;;7.02;55.80
76052;BME280;64751;48.708;9.710;2023-04-03T08:38:48;98436.81;;;7.00;57.44
76052;BME280;64751;48.708;9.710;2023-04-03T08:41:20;98445.25;;;6.91;56.58
76052;BME280;64751;48.708;9.710;2023-04-03T08:44:11;98436.59;;;6.90;58.35
76052;BME280;64751;48.708;9.710;2023-04-03T08:46:51;98432.13;;;7.02;56.89
76052;BME280;64751;48.708;9.710;2023-04-03T08:49:25;98435.34;;;6.81;56.11
76052;BME280;64751;48.708;9.710;2023-04-03T08:51:55;98433.44;;;6.65;56.29
76052;BME280;64751;48.708;9.710;2023-04-03T08:54:28;98431.53;;;5.96;56.75
76052;BME280;64751;48.708;9.710;2023-04-03T08:56:58;98436.94;;;6.24;58.37
76052;BME280;64751;48.708;9.710;2023-04-03T08:59:30;98441.13;;;6.14;56.84
76052;BME280;64751;48.708;9.710;2023-04-03T09:01:59;98438.38;;;6.09;57.37
76052;BME280;64751;48.708;9.710;2023-04-03T09:04:31;98435.31;;;6.12;58.67
76052;BME280;64751;48.708;9.710;2023-04-03T09:07:05;98419.19;;;5.85;57.69
76052;BME280;64751;48.708;9.710;2023-04-03T09:09:39;98439.88;;;6.28;57.83
76052;BME280;64751;48.708;9.710;2023-04-03T09:12:17;98428.63;;;6.62;57.47
76052;BME280;64751;48.708;9.710;2023-04-03T09:14:56;98433.63;;;6.64;57.64
76052;BME280;64751;48.708;9.710;2023-04-03T09:17:29;98432.50;;;6.59;56.14
76052;BME280;64751;48.708;9.710;2023-04-03T09:20:11;98429.88;;;6.48;56.06
76052;BME280;64751;48.708;9.710;2023-04-03T09:22:43;98434.00;;;6.55;56.83
76052;BME280;64751;48.708;9.710;2023-04-03T09:25:15;98436.06;;;6.65;57.28
76052;BME280;64751;48.708;9.710;2023-04-03T09:27:44;98436.38;;;6.57;56.95
76052;BME280;64751;48.708;9.710;2023-04-03T09:30:13;98427.50;;;6.58;57.62
76052;BME280;64751;48.708;9.710;2023-04-03T09:32:44;98420.66;;;6.45;56.37
76052;BME280;64751;48.708;9.710;2023-04-03T09:35:25;98434.91;;;6.38;54.60
76052;BME280;64751;48.708;9.710;2023-04-03T09:37:53;98421.09;;;6.42;55.36
76052;BME280;64751;48.708;9.710;2023-04-03T09:40:33;98434.22;;;6.42;55.18
76052;BME280;64751;48.708;9.710;2023-04-03T09:43:24;98431.34;;;6.44;56.30
76052;BME280;64751;48.708;9.710;2023-04-03T09:45:53;98439.47;;;6.54;56.26
76052;BME280;64751;48.708;9.710;2023-04-03T09:48:23;98432.84;;;6.63;56.62
76052;BME280;64751;48.708;9.710;2023-04-03T09:50:56;98437.41;;;6.44;55.72
76052;BME280;64751;48.708;9.710;2023-04-03T09:53:28;98444.13;;;6.40;56.11
76052;BME280;64751;48.708;9.710;2023-04-03T09:55:58;98443.19;;;6.23;54.87
76052;BME280;64751;48.708;9.710;2023-04-03T09:58:27;98424.56;;;6.02;56.42
76052;BME280;64751;48.708;9.710;2023-04-03T10:00:57;98431.88;;;6.00;56.57
76052;BME280;64751;48.708;9.710;2023-04-03T10:03:29;98439.88;;;6.05;57.47
76052;BME280;64751;48.708;9.710;2023-04-03T10:05:58;98442.03;;;6.19;57.66
76052;BME280;64751;48.708;9.710;2023-04-03T10:08:28;98437.16;;;6.34;57.08
76052;BME280;64751;48.708;9.710;2023-04-03T10:11:12;98437.88;;;6.30;55.99
76052;BME280;64751;48.708;9.710;2023-04-03T10:13:50;98428.53;;;6.45;57.54
76052;BME280;64751;48.708;9.710;2023-04-03T10:16:20;98429.66;;;6.38;55.32
76052;BME280;64751;48.708;9.710;2023-04-03T10:18:58;98432.94;;;6.33;54.88
76052;BME280;64751;48.708;9.710;2023-04-03T10:21:36;98437.16;;;6.23;55.46
76052;BME280;64751;48.708;9.710;2023-04-03T10:24:11;98434.53;;;6.23;57.34
76052;BME280;64751;48.708;9.710;2023-04-03T10:26:52;98441.72;;;6.16;56.54
76052;BME280;64751;48.708;9.710;2023-04-03T10:29:30;98437.00;;;6.06;55.56
76052;BME280;64751;48.708;9.710;2023-04-03T10:32:11;98425.63;;;6.12;55.23
76052;BME280;64751;48.708;9.710;2023-04-03T10:34:43;98431.44;;;6.26;54.95
76052;BME280;64751;48.708;9.710;2023-04-03T10:37:16;98421.31;;;6.18;54.85
76052;BME280;64751;48.708;9.710;2023-04-03T10:39:53;98423.34;;;6.16;55.25
76052;BME280;64751;48.708;9.710;2023-04-03T10:42:29;98410.34;;;6.09;54.15
76052;BME280;64751;48.708;9.710;2023-04-03T10:45:08;98427.69;;;6.22;56.17
76052;BME280;64751;48.708;9.710;2023-04-03T10:47:47;98426.31;;;6.19;52.89
76052;BME280;64751;48.708;9.710;2023-04-03T10:50:31;98419.59;;;6.12;53.96
76052;BME280;64751;48.708;9.710;2023-04-03T10:53:08;98427.91;;;6.09;54.37
76052;BME280;64751;48.708;9.710;2023-04-03T10:55:43;98432.81;;;6.05;55.43
76052;BME280;64751;48.708;9.710;2023-04-03T10:58:21;98421.63;;;6.10;54.91
76052;BME280;64751;48.708;9.710;2023-04-03T11:00:53;98419.59;;;6.12;54.00
76052;BME280;64751;48.708;9.710;2023-04-03T11:03:27;98425.38;;;6.02;51.41
76052;BME280;64751;48.708;9.710;2023-04-03T11:05:59;98423.56;;;6.03;53.31
76052;BME280;64751;48.708;9.710;2023-04-03T11:08:33;98433.81;;;6.04;52.23
76052;BME280;64751;48.708;9.710;2023-04-03T11:11:06;98420.03;;;6.09;51.99
76052;BME280;64751;48.708;9.710;2023-04-03T11:13:40;98416.16;;;6.34;51.85
76052;BME280;64751;48.708;9.710;2023-04-03T11:16:15;98411.75;;;6.58;49.36
76052;BME280;64751;48.708;9.710;2023-04-03T11:18:48;98403.50;;;6.66;50.11
76052;BME280;64751;48.708;9.710;2023-04-03T11:21:20;98403.75;;;6.76;49.08
76052;BME280;64751;48.708;9.710;2023-04-03T11:23:48;98413.81;;;6.68;48.66
76052;BME280;64751;48.708;9.710;2023-04-03T11:26:21;98407.19;;;6.53;48.57
76052;BME280;64751;48.708;9.710;2023-04-03T11:28:57;98406.03;;;6.49;48.95
76052;BME280;64751;48.708;9.710;2023-04-03T11:31:36;98401.25;;;6.35;50.54
76052;BME280;64751;48.708;9.710;2023-04-03T11:34:17;98407.28;;;6.24;49.82
76052;BME280;64751;48.708;9.710;2023-04-03T11:36:50;98405.81;;;6.16;50.01
76052;BME280;64751;48.708;9.710;2023-04-03T11:39:22;98407.63;;;6.27;49.45
76052;BME280;64751;48.708;9.710;2023-04-03T11:41:51;98404.44;;;6.37;51.93
76052;BME280;64751;48.708;9.710;2023-04-03T11:44:34;98394.50;;;6.62;50.02
76052;BME280;64751;48.708;9.710;2023-04-03T11:47:03;98394.06;;;6.42;46.90
76052;BME280;64751;48.708;9.710;2023-04-03T11:49:51;98398.28;;;6.43;49.06
76052;BME280;64751;48.708;9.710;2023-04-03T11:52:55;98394.75;;;6.37;48.24
76052;BME280;64751;48.708;9.710;2023-04-03T11:55:51;98393.72;;;6.50;48.77
76052;BME280;64751;48.708;9.710;2023-04-03T11:58:20;98392.25;;;6.54;49.43
76052;BME280;64751;48.708;9.710;2023-04-03T12:01:05;98378.63;;;6.69;48.30
76052;BME280;64751;48.708;9.710;2023-04-03T12:07:00;98384.28;;;7.00;52.18
76052;BME280;64751;48.708;9.710;2023-04-03T12:09:34;98388.53;;;7.01;49.71
76052;BME280;64751;48.708;9.710;2023-04-03T12:12:21;98382.50;;;6.78;47.84
76052;BME280;64751;48.708;9.710;2023-04-03T12:14:51;98384.94;;;6.68;50.03
76052;BME280;64751;48.708;9.710;2023-04-03T12:17:23;98376.00;;;6.80;50.06
76052;BME280;64751;48.708;9.710;2023-04-03T12:19:53;98380.09;;;6.88;48.72
76052;BME280;64751;48.708;9.710;2023-04-03T12:22:21;98374.41;;;6.79;47.70
76052;BME280;64751;48.708;9.710;2023-04-03T12:24:50;98384.41;;;6.94;48.99
76052;BME280;64751;48.708;9.710;2023-04-03T12:27:24;98376.97;;;7.02;50.16
76052;BME280;64751;48.708;9.710;2023-04-03T12:29:55;98373.22;;;6.98;48.72
76052;BME280;64751;48.708;9.710;2023-04-03T12:32:43;98376.69;;;6.87;47.41
76052;BME280;64751;48.708;9.710;2023-04-03T12:35:23;98372.66;;;6.96;50.00
76052;BME280;64751;48.708;9.710;2023-04-03T12:38:22;98372.63;;;7.08;51.31
76052;BME280;64751;48.708;9.710;2023-04-03T12:40:59;98369.13;;;6.91;49.16
76052;BME280;64751;48.708;9.710;2023-04-03T12:43:41;98365.44;;;6.52;48.30
76052;BME280;64751;48.708;9.710;2023-04-03T12:46:13;98369.44;;;6.54;48.77
76052;BME280;64751;48.708;9.710;2023-04-03T12:48:49;98356.16;;;6.73;52.69
76052;BME280;64751;48.708;9.710;2023-04-03T12:51:20;98368.38;;;6.79;50.74
76052;BME280;64751;48.708;9.710;2023-04-03T12:53:49;98361.94;;;6.86;49.93
76052;BME280;64751;48.708;9.710;2023-04-03T12:56:25;98360.41;;;7.02;49.85
76052;BME280;64751;48.708;9.710;2023-04-03T12:58:54;98368.03;;;7.15;49.25
76052;BME280;64751;48.708;9.710;2023-04-03T13:01:24;98343.13;;;7.17;45.72
76052;BME280;64751;48.708;9.710;2023-04-03T13:03:55;98333.56;;;7.11;46.48
76052;BME280;64751;48.708;9.710;2023-04-03T13:06:26;98342.84;;;7.02;47.07
76052;BME280;64751;48.708;9.710;2023-04-03T13:08:57;98348.16;;;7.19;47.67
76052;BME280;64751;48.708;9.710;2023-04-03T13:11:27;98348.75;;;7.09;47.34
76052;BME280;64751;48.708;9.710;2023-04-03T13:13:59;98345.63;;;7.24;47.90
76052;BME280;64751;48.708;9.710;2023-04-03T13:16:27;98346.41;;;7.24;48.49
76052;BME280;64751;48.708;9.710;2023-04-03T13:18:56;98345.19;;;7.44;48.30
76052;BME280;64751;48.708;9.710;2023-04-03T13:21:26;98343.50;;;7.38;46.77
76052;BME280;64751;48.708;9.710;2023-04-03T13:23:56;98351.56;;;7.48;48.25
76052;BME280;64751;48.708;9.710;2023-04-03T13:26:26;98342.63;;;7.32;44.12
76052;BME280;64751;48.708;9.710;2023-04-03T13:28:59;98338.56;;;7.13;45.82
76052;BME280;64751;48.708;9.710;2023-04-03T13:31:30;98335.16;;;7.12;45.84
76052;BME280;64751;48.708;9.710;2023-04-03T13:34:03;98351.19;;;7.27;48.24